createdAt,value
2019-02-28T00:02:28.000Z,67.43
2019-02-28T00:04:57.809Z,60.07
2019-02-28T00:07:27.639Z,64.70
2019-02-28T00:09:58.215Z,71.80
2019-02-28T00:12:29.079Z,69.13
2019-02-28T00:14:59.388Z,65.33
2019-02-28T00:17:29.189Z,71.80
2019-02-28T00:19:58.968Z,64.67
2019-02-28T00:22:28.838Z,56.53
2019-02-28T00:25:01.130Z,70.63
2019-02-28T00:27:30.223Z,77.17
2019-02-28T00:30:06.083Z,73.63
2019-02-28T00:32:34.363Z,68.93
2019-02-28T00:35:04.630Z,73.67
2019-02-28T00:37:34.462Z,74.93
2019-02-28T00:40:06.618Z,69.07
2019-02-28T00:42:38.507Z,76.03
2019-02-28T00:45:08.914Z,62.30
2019-02-28T00:47:38.619Z,70.67
2019-02-28T00:50:08.612Z,66.20
2019-02-28T00:52:38.439Z,72.97
2019-02-28T00:55:08.299Z,58.53
2019-02-28T00:57:38.168Z,67.97
2019-02-28T01:00:08.323Z,82.10
2019-02-28T01:02:38.327Z,76.03
2019-02-28T01:05:08.295Z,66.43
2019-02-28T01:07:38.025Z,75.50
2019-02-28T01:10:08.783Z,81.80
2019-02-28T01:12:38.585Z,83.03
2019-02-28T01:15:10.024Z,71.07
2019-02-28T01:17:40.632Z,77.73
2019-02-28T01:20:14.909Z,86.93
2019-02-28T01:22:42.324Z,84.23
2019-02-28T01:25:13.226Z,72.73
2019-02-28T01:27:43.144Z,76.83
2019-02-28T01:30:13.057Z,75.80
2019-02-28T01:32:42.951Z,74.97
2019-02-28T01:35:12.889Z,65.10
2019-02-28T01:37:42.838Z,69.83
2019-02-28T01:40:12.751Z,80.50
2019-02-28T01:42:42.585Z,72.07
2019-02-28T01:45:12.688Z,74.93
2019-02-28T01:47:42.620Z,67.63
2019-02-28T01:50:12.511Z,75.57
2019-02-28T01:52:45.998Z,81.60
2019-02-28T01:55:13.982Z,83.87
2019-02-28T01:57:44.353Z,73.90
2019-02-28T02:00:15.108Z,78.13
2019-02-28T02:02:44.874Z,83.20
2019-02-28T02:05:17.013Z,93.73
2019-02-28T02:07:47.690Z,87.23
2019-02-28T02:10:22.135Z,94.27
2019-02-28T02:12:52.298Z,77.93
2019-02-28T02:15:22.151Z,73.77
2019-02-28T02:17:51.918Z,86.60
2019-02-28T02:20:23.454Z,76.60
2019-02-28T02:22:53.283Z,80.97
2019-02-28T02:25:23.110Z,76.03
2019-02-28T02:27:53.229Z,76.33
2019-02-28T02:30:25.507Z,78.80
2019-02-28T02:32:55.910Z,70.47
2019-02-28T02:35:25.815Z,76.73
2019-02-28T02:37:55.733Z,60.97
2019-02-28T02:40:25.505Z,61.10
2019-02-28T02:42:55.230Z,48.47
2019-02-28T02:45:25.094Z,42.87
2019-02-28T02:47:54.967Z,38.30
2019-02-28T02:50:24.708Z,41.20
2019-02-28T02:52:54.416Z,46.80
2019-02-28T02:55:27.702Z,71.87
2019-02-28T02:57:55.622Z,61.23
2019-02-28T03:00:25.415Z,97.67
2019-02-28T03:02:55.123Z,45.03
2019-02-28T03:05:24.868Z,75.30
2019-02-28T03:07:59.446Z,39.77
2019-02-28T03:10:26.095Z,150.40
2019-02-28T03:12:57.410Z,69.23
2019-02-28T03:15:27.393Z,99.17
2019-02-28T03:17:57.247Z,50.00
2019-02-28T03:20:27.108Z,85.97
2019-02-28T03:23:01.725Z,49.20
2019-02-28T03:25:29.066Z,50.70
2019-02-28T03:27:59.826Z,62.37
2019-02-28T03:30:32.905Z,47.03
2019-02-28T03:33:00.967Z,44.07
2019-02-28T03:35:39.720Z,51.97
2019-02-28T03:38:02.061Z,47.80
2019-02-28T03:40:39.936Z,53.67
2019-02-28T03:43:06.752Z,54.03
2019-02-28T03:45:35.739Z,61.20
2019-02-28T03:48:05.645Z,62.27
2019-02-28T03:50:35.376Z,72.47
2019-02-28T03:53:05.371Z,84.83
2019-02-28T03:55:40.145Z,92.50
2019-02-28T03:58:07.101Z,107.80
2019-02-28T04:00:36.923Z,85.77
2019-02-28T04:03:06.682Z,93.23
2019-02-28T04:05:38.341Z,113.83
2019-02-28T04:08:08.243Z,94.63
2019-02-28T04:10:38.060Z,103.13
2019-02-28T04:13:08.803Z,91.80
2019-02-28T04:15:38.562Z,104.40
2019-02-28T04:18:08.601Z,96.93
2019-02-28T04:20:39.423Z,112.30
2019-02-28T04:23:09.646Z,106.47
2019-02-28T04:25:39.569Z,104.23
2019-02-28T04:28:17.192Z,100.37
2019-02-28T04:30:43.790Z,98.30
2019-02-28T04:33:13.322Z,109.03
2019-02-28T04:35:43.285Z,112.30
2019-02-28T04:38:12.994Z,106.60
2019-02-28T04:40:42.782Z,97.03
2019-02-28T04:43:13.242Z,98.13
2019-02-28T04:45:43.024Z,106.67
2019-02-28T04:48:14.022Z,113.57
2019-02-28T04:50:44.461Z,110.60
2019-02-28T04:53:18.869Z,106.80
2019-02-28T04:55:47.501Z,91.53
2019-02-28T04:58:22.356Z,99.97
2019-02-28T05:00:51.562Z,97.03
2019-02-28T05:03:21.424Z,101.77
2019-02-28T05:05:51.369Z,100.43
2019-02-28T05:08:21.074Z,116.03
2019-02-28T05:10:55.566Z,111.13
2019-02-28T05:13:22.229Z,97.23
2019-02-28T05:15:51.924Z,111.57
2019-02-28T05:18:22.093Z,109.27
2019-02-28T05:20:51.862Z,112.53
2019-02-28T05:23:21.712Z,77.90
2019-02-28T05:25:52.128Z,66.03
2019-02-28T05:28:22.512Z,60.47
2019-02-28T05:30:53.761Z,57.23
2019-02-28T05:33:23.629Z,43.33
2019-02-28T05:35:53.664Z,40.03
2019-02-28T05:38:23.796Z,80.17
2019-02-28T05:40:55.470Z,44.87
2019-02-28T05:43:24.949Z,35.00
2019-02-28T05:45:54.675Z,39.87
2019-02-28T05:48:24.392Z,33.60
2019-02-28T05:50:54.224Z,38.87
2019-02-28T05:53:24.032Z,33.93
2019-02-28T05:55:59.016Z,40.77
2019-02-28T05:58:25.303Z,45.87
2019-02-28T06:00:55.012Z,50.40
2019-02-28T06:03:24.792Z,46.37
2019-02-28T06:05:54.583Z,64.77
2019-02-28T06:08:24.378Z,67.13
2019-02-28T06:10:56.052Z,73.63
2019-02-28T06:13:25.498Z,65.30
2019-02-28T06:15:55.266Z,67.03
2019-02-28T06:18:27.072Z,61.27
2019-02-28T06:20:56.413Z,62.57
2019-02-28T06:23:26.181Z,62.13
2019-02-28T06:25:59.307Z,52.57
2019-02-28T06:28:27.658Z,58.83
2019-02-28T06:31:00.264Z,56.10
2019-02-28T06:33:33.675Z,243.50
2019-02-28T06:36:04.589Z,148.30
2019-02-28T06:38:34.423Z,101.83
2019-02-28T06:41:07.710Z,51.63
2019-02-28T06:43:50.281Z,43.33
2019-02-28T06:46:20.883Z,36.10
2019-02-28T06:48:51.017Z,50.50
2019-02-28T06:51:20.764Z,62.97
2019-02-28T06:53:50.483Z,68.70
2019-02-28T06:56:22.514Z,88.80
2019-02-28T06:58:51.725Z,98.83
2019-02-28T07:01:22.690Z,101.73
2019-02-28T07:03:53.658Z,102.70
2019-02-28T07:06:23.692Z,118.20
2019-02-28T07:08:53.443Z,117.87
2019-02-28T07:11:23.154Z,126.57
2019-02-28T07:13:52.931Z,125.07
2019-02-28T07:16:22.908Z,130.67
2019-02-28T07:18:53.784Z,108.20
2019-02-28T07:21:23.954Z,105.70
2019-02-28T07:23:53.786Z,101.60
2019-02-28T07:26:23.486Z,105.10
2019-02-28T07:28:53.242Z,120.67
2019-02-28T07:31:24.663Z,106.33
2019-02-28T07:33:54.450Z,100.20
2019-02-28T07:36:34.505Z,97.50
2019-02-28T07:39:05.383Z,92.13
2019-02-28T07:41:35.844Z,84.30
2019-02-28T07:44:05.706Z,82.70
2019-02-28T07:46:38.758Z,79.50
2019-02-28T07:49:09.594Z,66.60
2019-02-28T07:51:39.322Z,61.60
2019-02-28T07:54:09.083Z,75.77
2019-02-28T07:56:43.000Z,67.57
2019-02-28T07:59:10.434Z,74.00
2019-02-28T08:01:40.222Z,57.70
2019-02-28T08:04:09.923Z,64.93
2019-02-28T08:06:40.479Z,70.83
2019-02-28T08:09:40.568Z,71.83
2019-02-28T08:12:12.093Z,80.60
2019-02-28T08:14:43.615Z,80.73
2019-02-28T08:17:13.327Z,72.63
2019-02-28T08:19:46.147Z,81.90
2019-02-28T08:22:15.990Z,100.20
2019-02-28T08:24:45.810Z,121.83
2019-02-28T08:27:15.569Z,111.87
2019-02-28T08:29:48.717Z,132.53
2019-02-28T08:32:18.589Z,103.80
2019-02-28T08:34:48.335Z,122.67
2019-02-28T08:37:18.950Z,131.80
2019-02-28T08:39:49.847Z,123.17
2019-02-28T08:42:20.613Z,109.03
2019-02-28T08:44:50.332Z,135.53
2019-02-28T08:47:21.123Z,129.07
2019-02-28T08:49:51.981Z,129.00
2019-02-28T08:52:22.823Z,136.37
2019-02-28T08:54:54.174Z,129.20
2019-02-28T08:57:25.625Z,132.13
2019-02-28T08:59:56.279Z,142.73
2019-02-28T09:02:26.962Z,132.90
2019-02-28T09:04:57.274Z,136.83
2019-02-28T09:07:27.086Z,124.33
2019-02-28T09:09:57.756Z,111.80
2019-02-28T09:12:29.935Z,131.07
2019-02-28T09:15:11.103Z,103.77
2019-02-28T09:17:41.080Z,131.87
2019-02-28T09:20:11.252Z,107.83
2019-02-28T09:22:41.318Z,97.10
2019-02-28T09:25:12.856Z,92.23
2019-02-28T09:27:42.883Z,99.10
2019-02-28T09:30:26.567Z,112.40
2019-02-28T09:32:57.749Z,99.60
2019-02-28T09:35:27.698Z,92.30
2019-02-28T09:37:57.510Z,102.73
2019-02-28T09:40:29.538Z,90.70
2019-02-28T09:42:59.953Z,88.27
2019-02-28T09:45:31.124Z,80.70
2019-02-28T09:48:02.241Z,91.03
2019-02-28T09:50:33.159Z,89.80
2019-02-28T09:53:05.760Z,106.03
2019-02-28T09:55:35.626Z,86.33
2019-02-28T09:58:06.453Z,85.43
2019-02-28T10:00:36.422Z,115.97
2019-02-28T10:03:06.886Z,93.47
2019-02-28T10:05:38.954Z,99.27
2019-02-28T10:08:10.658Z,92.20
2019-02-28T10:10:40.487Z,92.63
2019-02-28T10:13:14.524Z,102.47
2019-02-28T10:15:47.099Z,95.90
2019-02-28T10:18:17.988Z,95.03
2019-02-28T10:20:47.966Z,97.40
2019-02-28T10:23:18.451Z,99.77
2019-02-28T10:25:50.878Z,104.70
2019-02-28T10:28:29.191Z,104.57
2019-02-28T10:31:00.954Z,88.93
2019-02-28T10:33:32.671Z,115.87
2019-02-28T10:36:02.603Z,103.73
2019-02-28T10:38:32.938Z,99.97
2019-02-28T10:41:03.975Z,97.10
2019-02-28T10:43:36.347Z,101.10
2019-02-28T10:46:06.216Z,95.37
2019-02-28T10:48:41.840Z,106.70
2019-02-28T10:51:13.890Z,93.33
2019-02-28T10:53:39.575Z,105.50
2019-02-28T10:56:12.653Z,89.70
2019-02-28T10:58:42.447Z,94.53
2019-02-28T11:01:12.890Z,85.67
2019-02-28T11:03:43.094Z,83.63
2019-02-28T11:06:12.910Z,83.47
2019-02-28T11:08:44.468Z,88.13
2019-02-28T11:11:14.554Z,94.47
2019-02-28T11:13:45.226Z,84.90
2019-02-28T11:16:15.099Z,83.63
2019-02-28T11:18:45.104Z,82.83
2019-02-28T11:21:15.382Z,89.80
2019-02-28T11:23:46.507Z,92.57
2019-02-28T11:26:16.931Z,86.00
2019-02-28T11:28:47.790Z,90.13
2019-02-28T11:31:19.175Z,100.73
2019-02-28T11:33:50.167Z,99.43
2019-02-28T11:36:19.998Z,97.77
2019-02-28T11:38:52.484Z,99.87
2019-02-28T11:41:21.411Z,96.77
2019-02-28T11:43:53.828Z,111.50
2019-02-28T11:46:23.676Z,117.27
2019-02-28T11:48:53.969Z,112.50
2019-02-28T11:51:24.959Z,113.57
2019-02-28T11:53:54.661Z,112.27
2019-02-28T11:56:25.590Z,114.37
2019-02-28T11:58:55.959Z,113.17
2019-02-28T12:01:25.791Z,104.07
2019-02-28T12:03:55.533Z,111.30
2019-02-28T12:06:26.290Z,104.50
2019-02-28T12:08:56.202Z,92.27
2019-02-28T12:11:25.890Z,96.03
2019-02-28T12:13:56.098Z,109.40
2019-02-28T12:16:26.206Z,103.20
2019-02-28T12:18:55.934Z,85.80
2019-02-28T12:21:27.426Z,98.30
2019-02-28T12:23:58.349Z,92.93
2019-02-28T12:26:29.601Z,94.53
2019-02-28T12:28:59.330Z,80.97
2019-02-28T12:31:32.080Z,87.40
2019-02-28T12:34:00.826Z,88.27
2019-02-28T12:36:30.626Z,87.57
2019-02-28T12:39:02.284Z,73.40
2019-02-28T12:41:33.858Z,94.87
2019-02-28T12:44:03.645Z,84.70
2019-02-28T12:46:33.434Z,80.23
2019-02-28T12:49:03.214Z,77.77
2019-02-28T12:51:33.022Z,86.70
2019-02-28T12:54:03.978Z,92.80
2019-02-28T12:56:33.783Z,96.57
2019-02-28T12:59:04.003Z,97.23
2019-02-28T13:01:34.364Z,110.83
2019-02-28T13:04:04.454Z,109.03
2019-02-28T13:06:34.276Z,111.77
2019-02-28T13:09:05.236Z,120.23
2019-02-28T13:11:36.391Z,117.23
2019-02-28T13:14:06.606Z,127.40
2019-02-28T13:16:36.599Z,124.90
2019-02-28T13:19:06.723Z,113.23
2019-02-28T13:21:36.675Z,112.47
2019-02-28T13:24:09.858Z,105.33
2019-02-28T13:26:38.086Z,114.43
2019-02-28T13:29:10.004Z,110.10
2019-02-28T13:31:41.252Z,113.07
2019-02-28T13:34:10.987Z,100.83
2019-02-28T13:36:42.233Z,103.03
2019-02-28T13:39:12.098Z,108.53
2019-02-28T13:41:41.806Z,106.80
2019-02-28T13:44:11.654Z,112.67
2019-02-28T13:46:41.439Z,112.03
2019-02-28T13:49:12.118Z,97.87
2019-02-28T13:51:42.787Z,102.93
2019-02-28T13:54:12.544Z,104.83
2019-02-28T13:56:42.324Z,99.87
2019-02-28T13:59:12.155Z,98.17
2019-02-28T14:01:42.027Z,106.63
2019-02-28T14:04:11.835Z,110.30
2019-02-28T14:06:41.581Z,98.77
2019-02-28T14:09:11.510Z,95.30
2019-02-28T14:11:41.772Z,88.10
2019-02-28T14:14:13.142Z,87.47
2019-02-28T14:16:42.979Z,74.37
2019-02-28T14:19:12.908Z,80.03
2019-02-28T14:21:44.218Z,91.03
2019-02-28T14:24:14.058Z,81.00
2019-02-28T14:26:46.635Z,87.00
2019-02-28T14:29:16.236Z,82.67
2019-02-28T14:31:57.436Z,78.07
2019-02-28T14:34:27.256Z,77.90
2019-02-28T14:36:58.190Z,80.10
2019-02-28T14:39:28.315Z,78.07
2019-02-28T14:41:58.124Z,63.27
2019-02-28T14:44:31.252Z,70.97
2019-02-28T14:46:59.375Z,67.50
2019-02-28T14:49:29.212Z,65.20
2019-02-28T14:52:00.407Z,76.62
2019-02-28T14:54:33.511Z,65.83
2019-02-28T14:57:03.379Z,67.80
2019-02-28T14:59:33.090Z,51.40
2019-02-28T15:02:02.963Z,60.57
2019-02-28T15:04:32.723Z,51.73
2019-02-28T15:07:04.127Z,43.70
2019-02-28T15:09:34.014Z,39.00
2019-02-28T15:12:03.873Z,50.57
2019-02-28T15:14:33.833Z,36.20
2019-02-28T15:17:06.847Z,38.33
2019-02-28T15:19:35.289Z,38.00
2019-02-28T15:22:06.143Z,37.27
2019-02-28T15:24:36.813Z,38.27
2019-02-28T15:27:06.601Z,42.90
2019-02-28T15:29:36.478Z,36.07
2019-02-28T15:32:06.282Z,34.47
2019-02-28T15:34:37.427Z,41.33
2019-02-28T15:37:07.580Z,31.33
2019-02-28T15:39:37.366Z,27.07
2019-02-28T15:42:08.220Z,25.93
2019-02-28T15:44:38.779Z,30.17
2019-02-28T15:47:08.541Z,26.17
2019-02-28T15:49:38.259Z,40.87
2019-02-28T15:52:08.194Z,28.57
2019-02-28T15:54:38.001Z,29.67
2019-02-28T15:57:07.954Z,24.53
2019-02-28T15:59:38.915Z,32.73
2019-02-28T16:02:10.671Z,26.57
2019-02-28T16:04:40.518Z,29.53
2019-02-28T16:07:10.389Z,34.83
2019-02-28T16:09:40.188Z,27.67
2019-02-28T16:12:12.474Z,35.83
2019-02-28T16:14:43.199Z,37.37
2019-02-28T16:17:13.047Z,32.00
2019-02-28T16:19:42.828Z,19.30
2019-02-28T16:22:14.634Z,28.27
2019-02-28T16:24:44.199Z,29.37
2019-02-28T16:27:14.187Z,24.30
2019-02-28T16:29:44.137Z,28.67
2019-02-28T16:32:16.685Z,25.00
2019-02-28T16:34:46.594Z,25.40
2019-02-28T16:37:17.678Z,30.43
2019-02-28T16:39:49.130Z,25.70
2019-02-28T16:42:18.907Z,28.13
2019-02-28T16:44:48.891Z,22.87
2019-02-28T16:47:21.514Z,33.37
2019-02-28T16:49:50.016Z,42.00
2019-02-28T16:52:19.791Z,25.83
2019-02-28T16:54:49.587Z,24.83
2019-02-28T16:57:19.912Z,29.63
2019-02-28T16:59:49.623Z,25.90
2019-02-28T17:02:21.894Z,30.43
2019-02-28T17:04:52.864Z,36.17
2019-02-28T17:07:23.839Z,28.10
2019-02-28T17:09:53.608Z,43.30
2019-02-28T17:12:34.745Z,36.90
2019-02-28T17:15:09.591Z,35.37
2019-02-28T17:17:50.164Z,35.73
2019-02-28T17:20:19.978Z,32.90
2019-02-28T17:22:49.667Z,45.03
2019-02-28T17:25:21.816Z,39.43
2019-02-28T17:27:59.600Z,43.73
2019-02-28T17:30:45.765Z,35.53
2019-02-28T17:33:15.353Z,27.47
2019-02-28T17:35:45.194Z,26.97
2019-02-28T17:38:16.245Z,31.30
2019-02-28T17:40:46.115Z,34.60
2019-02-28T17:43:15.810Z,43.93
2019-02-28T17:45:47.235Z,49.43
2019-02-28T17:48:55.656Z,38.67
2019-02-28T17:51:42.299Z,38.43
2019-02-28T17:54:39.244Z,35.53
2019-02-28T17:57:17.755Z,32.80
2019-02-28T18:00:26.852Z,32.33
2019-02-28T18:03:20.314Z,36.67
2019-02-28T18:06:47.244Z,23.13
2019-02-28T18:09:49.960Z,27.97
2019-02-28T18:12:57.593Z,38.43
2019-02-28T18:15:35.255Z,39.40
2019-02-28T18:18:55.853Z,38.33
2019-02-28T18:21:45.299Z,31.43
2019-02-28T18:25:10.463Z,28.47
2019-02-28T18:28:01.896Z,36.73
2019-02-28T18:31:12.604Z,31.50
2019-02-28T18:33:53.898Z,32.40
2019-02-28T18:36:27.472Z,36.83
2019-02-28T18:38:57.272Z,28.23
2019-02-28T18:41:27.222Z,33.60
2019-02-28T18:44:00.035Z,32.73
2019-02-28T18:46:29.510Z,38.83
2019-02-28T18:49:00.128Z,41.87
2019-02-28T18:51:29.883Z,42.27
2019-02-28T18:54:00.660Z,38.00
2019-02-28T18:56:30.572Z,29.63
2019-02-28T18:59:00.424Z,28.63
2019-02-28T19:01:31.458Z,38.97
2019-02-28T19:04:01.362Z,27.37
2019-02-28T19:06:34.191Z,31.43
2019-02-28T19:09:07.499Z,34.83
2019-02-28T19:11:38.954Z,30.20
2019-02-28T19:14:08.665Z,29.03
2019-02-28T19:16:41.196Z,36.07
2019-02-28T19:19:10.994Z,40.17
2019-02-28T19:21:40.699Z,35.87
2019-02-28T19:24:11.458Z,28.50
2019-02-28T19:26:41.231Z,23.37
2019-02-28T19:29:11.001Z,38.33
2019-02-28T19:31:40.842Z,43.70
2019-02-28T19:34:10.701Z,34.73
2019-02-28T19:36:40.516Z,30.20
2019-02-28T19:39:10.445Z,34.03
2019-02-28T19:41:40.310Z,35.63
2019-02-28T19:44:10.027Z,34.13
2019-02-28T19:46:39.882Z,30.17
2019-02-28T19:49:09.639Z,26.03
2019-02-28T19:51:41.103Z,26.07
2019-02-28T19:54:10.833Z,50.23
2019-02-28T19:56:40.603Z,41.50
2019-02-28T19:59:10.311Z,17.53
2019-02-28T20:01:41.921Z,30.30
2019-02-28T20:04:15.406Z,37.83
2019-02-28T20:06:45.411Z,36.40
2019-02-28T20:09:15.373Z,35.40
2019-02-28T20:11:45.262Z,37.53
2019-02-28T20:14:16.177Z,40.67
2019-02-28T20:16:46.088Z,23.17
2019-02-28T20:19:15.873Z,24.13
2019-02-28T20:21:45.758Z,25.20
2019-02-28T20:24:15.591Z,22.27
2019-02-28T20:26:45.479Z,32.90
2019-02-28T20:29:15.210Z,31.60
2019-02-28T20:31:44.966Z,30.13
2019-02-28T20:34:14.892Z,40.03
2019-02-28T20:36:46.825Z,34.17
2019-02-28T20:39:16.635Z,30.50
2019-02-28T20:41:46.470Z,26.77
2019-02-28T20:44:16.233Z,26.43
2019-02-28T20:46:46.191Z,28.93
2019-02-28T20:49:15.979Z,26.90
2019-02-28T20:51:54.631Z,19.67
2019-02-28T20:54:18.669Z,29.00
2019-02-28T20:56:48.374Z,25.03
2019-02-28T20:59:19.310Z,23.33
2019-02-28T21:01:49.172Z,33.07
2019-02-28T21:04:18.931Z,21.87
2019-02-28T21:06:48.817Z,27.67
2019-02-28T21:09:19.449Z,32.70
2019-02-28T21:11:49.359Z,33.70
2019-02-28T21:14:19.142Z,36.33
2019-02-28T21:16:48.918Z,21.77
2019-02-28T21:19:19.577Z,26.73
2019-02-28T21:21:49.375Z,30.23
2019-02-28T21:24:21.942Z,33.47
2019-02-28T21:26:51.685Z,32.37
2019-02-28T21:29:21.445Z,28.63
2019-02-28T21:31:52.860Z,22.90
2019-02-28T21:34:22.579Z,24.47
2019-02-28T21:36:52.443Z,34.53
2019-02-28T21:39:22.166Z,39.90
2019-02-28T21:41:52.030Z,37.20
2019-02-28T21:44:21.802Z,42.33
2019-02-28T21:46:51.555Z,42.73
2019-02-28T21:49:21.417Z,38.77
2019-02-28T21:51:51.226Z,39.83
2019-02-28T21:54:20.959Z,40.77
2019-02-28T21:56:50.726Z,50.67
2019-02-28T21:59:22.949Z,24.37
2019-02-28T22:01:52.710Z,35.13
2019-02-28T22:04:22.631Z,32.87
2019-02-28T22:06:52.370Z,49.10
2019-02-28T22:09:22.075Z,42.33
2019-02-28T22:11:51.783Z,52.10
2019-02-28T22:14:21.492Z,46.23
2019-02-28T22:16:51.212Z,41.17
2019-02-28T22:19:22.603Z,62.40
2019-02-28T22:21:52.415Z,60.77
2019-02-28T22:24:22.268Z,62.10
2019-02-28T22:26:51.990Z,44.83
2019-02-28T22:29:21.839Z,44.93
2019-02-28T22:32:01.454Z,40.23
2019-02-28T22:34:39.130Z,54.63
2019-02-28T22:37:08.862Z,46.93
2019-02-28T22:39:38.675Z,53.40
2019-02-28T22:42:08.465Z,43.67
2019-02-28T22:44:38.244Z,47.20
2019-02-28T22:47:07.953Z,61.97
2019-02-28T22:49:37.727Z,72.67
2019-02-28T22:52:07.480Z,44.20
2019-02-28T22:54:37.192Z,52.33
2019-02-28T22:57:09.079Z,50.37
2019-02-28T22:59:38.775Z,55.17
2019-02-28T23:02:08.766Z,42.23
2019-02-28T23:04:39.658Z,61.83
2019-02-28T23:07:09.504Z,66.90
2019-02-28T23:09:39.302Z,43.10
2019-02-28T23:12:09.142Z,51.17
2019-02-28T23:14:38.843Z,59.23
2019-02-28T23:17:08.539Z,56.67
2019-02-28T23:19:39.205Z,52.07
2019-02-28T23:22:08.998Z,61.93
2019-02-28T23:24:41.698Z,54.70
2019-02-28T23:27:14.388Z,67.57
2019-02-28T23:29:51.092Z,67.40
2019-02-28T23:32:41.931Z,61.20
2019-02-28T23:35:15.759Z,73.37
2019-02-28T23:37:45.638Z,54.13
2019-02-28T23:40:15.404Z,87.03
2019-02-28T23:42:45.266Z,75.43
2019-02-28T23:45:16.011Z,77.93
2019-02-28T23:47:45.793Z,59.50
2019-02-28T23:50:15.627Z,78.50
2019-02-28T23:52:45.331Z,73.70
2019-02-28T23:55:15.218Z,86.27
2019-02-28T23:57:44.925Z,74.37
